sensor_id;sensor_type;location;lat;lon;timestamp;P1;durP1;ratioP1;P2;durP2;ratioP2
15198;SDS011;7700;48.654;9.070;2024-03-02T00:02:12;9.00;;;8.10;;
15198;SDS011;7700;48.654;9.070;2024-03-02T00:04:39;11.03;;;9.07;;
15198;SDS011;7700;48.654;9.070;2024-03-02T00:07:05;9.17;;;8.17;;
15198;SDS011;7700;48.654;9.070;2024-03-02T00:09:31;9.17;;;8.30;;
15198;SDS011;7700;48.654;9.070;2024-03-02T00:11:58;8.10;;;7.30;;
15198;SDS011;7700;48.654;9.070;2024-03-02T00:14:25;8.80;;;7.90;;
15198;SDS011;7700;48.654;9.070;2024-03-02T00:16:51;9.87;;;7.27;;
15198;SDS011;7700;48.654;9.070;2024-03-02T00:19:17;8.60;;;7.17;;
15198;SDS011;7700;48.654;9.070;2024-03-02T00:21:42;8.33;;;7.53;;
15198;SDS011;7700;48.654;9.070;2024-03-02T00:24:12;8.40;;;7.57;;
15198;SDS011;7700;48.654;9.070;2024-03-02T00:26:47;8.73;;;7.83;;
15198;SDS011;7700;48.654;9.070;2024-03-02T00:29:14;8.27;;;7.47;;
15198;SDS011;7700;48.654;9.070;2024-03-02T00:31:43;8.03;;;7.23;;
15198;SDS011;7700;48.654;9.070;2024-03-02T00:34:08;8.17;;;7.37;;
15198;SDS011;7700;48.654;9.070;2024-03-02T00:36:38;8.57;;;7.67;;
15198;SDS011;7700;48.654;9.070;2024-03-02T00:39:04;8.77;;;7.97;;
15198;SDS011;7700;48.654;9.070;2024-03-02T00:41:32;8.30;;;7.50;;
15198;SDS011;7700;48.654;9.070;2024-03-02T00:46:34;9.70;;;8.10;;
15198;SDS011;7700;48.654;9.070;2024-03-02T00:49:04;8.83;;;7.97;;
15198;SDS011;7700;48.654;9.070;2024-03-02T00:51:51;9.50;;;8.40;;
15198;SDS011;7700;48.654;9.070;2024-03-02T00:54:22;9.17;;;8.20;;
15198;SDS011;7700;48.654;9.070;2024-03-02T00:56:49;8.60;;;7.73;;
15198;SDS011;7700;48.654;9.070;2024-03-02T00:59:16;8.97;;;8.07;;
15198;SDS011;7700;48.654;9.070;2024-03-02T01:01:42;9.20;;;8.30;;
15198;SDS011;7700;48.654;9.070;2024-03-02T01:04:08;9.73;;;8.60;;
15198;SDS011;7700;48.654;9.070;2024-03-02T01:06:34;11.03;;;9.23;;
15198;SDS011;7700;48.654;9.070;2024-03-02T01:09:01;9.00;;;8.17;;
15198;SDS011;7700;48.654;9.070;2024-03-02T01:11:30;8.53;;;7.73;;
15198;SDS011;7700;48.654;9.070;2024-03-02T01:13:56;10.40;;;8.90;;
15198;SDS011;7700;48.654;9.070;2024-03-02T01:16:21;9.60;;;8.70;;
15198;SDS011;7700;48.654;9.070;2024-03-02T01:18:47;9.23;;;7.73;;
15198;SDS011;7700;48.654;9.070;2024-03-02T01:21:13;9.50;;;8.50;;
15198;SDS011;7700;48.654;9.070;2024-03-02T01:23:39;10.50;;;9.43;;
15198;SDS011;7700;48.654;9.070;2024-03-02T01:26:05;10.37;;;9.37;;
15198;SDS011;7700;48.654;9.070;2024-03-02T01:28:32;11.30;;;10.10;;
15198;SDS011;7700;48.654;9.070;2024-03-02T01:30:58;11.27;;;9.93;;
15198;SDS011;7700;48.654;9.070;2024-03-02T01:33:23;11.37;;;10.27;;
15198;SDS011;7700;48.654;9.070;2024-03-02T01:35:49;9.77;;;8.77;;
15198;SDS011;7700;48.654;9.070;2024-03-02T01:38:14;11.00;;;9.90;;
15198;SDS011;7700;48.654;9.070;2024-03-02T01:40:40;12.17;;;10.50;;
15198;SDS011;7700;48.654;9.070;2024-03-02T01:43:06;9.80;;;8.80;;
15198;SDS011;7700;48.654;9.070;2024-03-02T01:45:32;10.07;;;9.07;;
15198;SDS011;7700;48.654;9.070;2024-03-02T01:48:00;10.40;;;9.13;;
15198;SDS011;7700;48.654;9.070;2024-03-02T01:50:27;9.67;;;8.67;;
15198;SDS011;7700;48.654;9.070;2024-03-02T01:52:53;10.27;;;9.00;;
15198;SDS011;7700;48.654;9.070;2024-03-02T01:55:20;11.47;;;9.90;;
15198;SDS011;7700;48.654;9.070;2024-03-02T01:57:45;11.47;;;9.60;;
15198;SDS011;7700;48.654;9.070;2024-03-02T02:00:12;10.90;;;9.23;;
15198;SDS011;7700;48.654;9.070;2024-03-02T02:02:38;10.70;;;9.60;;
15198;SDS011;7700;48.654;9.070;2024-03-02T02:05:04;10.20;;;9.20;;
15198;SDS011;7700;48.654;9.070;2024-03-02T02:07:30;10.30;;;8.80;;
15198;SDS011;7700;48.654;9.070;2024-03-02T02:09:56;11.80;;;9.90;;
15198;SDS011;7700;48.654;9.070;2024-03-02T02:12:22;11.30;;;10.10;;
15198;SDS011;7700;48.654;9.070;2024-03-02T02:14:48;13.13;;;10.23;;
15198;SDS011;7700;48.654;9.070;2024-03-02T02:17:15;11.43;;;10.27;;
15198;SDS011;7700;48.654;9.070;2024-03-02T02:19:41;11.30;;;9.40;;
15198;SDS011;7700;48.654;9.070;2024-03-02T02:22:07;11.13;;;10.03;;
15198;SDS011;7700;48.654;9.070;2024-03-02T02:24:33;12.57;;;10.47;;
15198;SDS011;7700;48.654;9.070;2024-03-02T02:26:59;10.90;;;9.80;;
15198;SDS011;7700;48.654;9.070;2024-03-02T02:29:24;12.03;;;10.07;;
15198;SDS011;7700;48.654;9.070;2024-03-02T02:31:50;10.10;;;9.10;;
15198;SDS011;7700;48.654;9.070;2024-03-02T02:34:15;10.63;;;9.53;;
15198;SDS011;7700;48.654;9.070;2024-03-02T02:36:41;13.27;;;10.17;;
15198;SDS011;7700;48.654;9.070;2024-03-02T02:39:09;10.80;;;9.70;;
15198;SDS011;7700;48.654;9.070;2024-03-02T02:41:38;11.07;;;9.73;;
15198;SDS011;7700;48.654;9.070;2024-03-02T02:44:04;11.10;;;9.53;;
15198;SDS011;7700;48.654;9.070;2024-03-02T02:46:29;10.40;;;9.30;;
15198;SDS011;7700;48.654;9.070;2024-03-02T02:48:55;10.67;;;9.57;;
15198;SDS011;7700;48.654;9.070;2024-03-02T02:51:21;10.50;;;9.40;;
15198;SDS011;7700;48.654;9.070;2024-03-02T02:53:46;11.13;;;9.70;;
15198;SDS011;7700;48.654;9.070;2024-03-02T02:56:12;11.17;;;9.90;;
15198;SDS011;7700;48.654;9.070;2024-03-02T02:58:37;10.77;;;9.33;;
15198;SDS011;7700;48.654;9.070;2024-03-02T03:01:05;10.87;;;9.77;;
15198;SDS011;7700;48.654;9.070;2024-03-02T03:03:30;11.40;;;10.13;;
15198;SDS011;7700;48.654;9.070;2024-03-02T03:05:56;11.63;;;10.13;;
15198;SDS011;7700;48.654;9.070;2024-03-02T03:08:21;12.00;;;9.80;;
15198;SDS011;7700;48.654;9.070;2024-03-02T03:13:23;10.50;;;9.40;;
15198;SDS011;7700;48.654;9.070;2024-03-02T03:15:49;11.00;;;9.77;;
15198;SDS011;7700;48.654;9.070;2024-03-02T03:18:14;10.67;;;9.57;;
15198;SDS011;7700;48.654;9.070;2024-03-02T03:20:40;10.27;;;9.27;;
15198;SDS011;7700;48.654;9.070;2024-03-02T03:23:05;10.27;;;9.23;;
15198;SDS011;7700;48.654;9.070;2024-03-02T03:25:31;10.40;;;8.93;;
15198;SDS011;7700;48.654;9.070;2024-03-02T03:27:56;10.73;;;9.63;;
15198;SDS011;7700;48.654;9.070;2024-03-02T03:30:22;9.90;;;8.90;;
15198;SDS011;7700;48.654;9.070;2024-03-02T03:32:47;11.50;;;10.37;;
15198;SDS011;7700;48.654;9.070;2024-03-02T03:35:13;11.00;;;9.50;;
15198;SDS011;7700;48.654;9.070;2024-03-02T03:37:40;12.10;;;10.53;;
15198;SDS011;7700;48.654;9.070;2024-03-02T03:40:06;11.63;;;10.27;;
15198;SDS011;7700;48.654;9.070;2024-03-02T03:42:35;12.03;;;10.70;;
15198;SDS011;7700;48.654;9.070;2024-03-02T03:45:04;11.93;;;10.63;;
15198;SDS011;7700;48.654;9.070;2024-03-02T03:47:33;13.63;;;11.67;;
15198;SDS011;7700;48.654;9.070;2024-03-02T03:49:58;12.13;;;10.80;;
15198;SDS011;7700;48.654;9.070;2024-03-02T03:52:24;11.83;;;10.60;;
15198;SDS011;7700;48.654;9.070;2024-03-02T03:54:50;10.83;;;9.63;;
15198;SDS011;7700;48.654;9.070;2024-03-02T03:57:15;12.97;;;10.53;;
15198;SDS011;7700;48.654;9.070;2024-03-02T03:59:42;11.43;;;9.87;;
15198;SDS011;7700;48.654;9.070;2024-03-02T04:02:08;12.73;;;10.70;;
15198;SDS011;7700;48.654;9.070;2024-03-02T04:04:34;12.00;;;10.53;;
15198;SDS011;7700;48.654;9.070;2024-03-02T04:07:00;12.97;;;11.27;;
15198;SDS011;7700;48.654;9.070;2024-03-02T04:09:25;12.37;;;10.57;;
15198;SDS011;7700;48.654;9.070;2024-03-02T04:11:51;12.70;;;10.63;;
15198;SDS011;7700;48.654;9.070;2024-03-02T04:14:17;14.10;;;11.57;;
15198;SDS011;7700;48.654;9.070;2024-03-02T04:16:42;13.23;;;11.83;;
15198;SDS011;7700;48.654;9.070;2024-03-02T04:19:08;13.47;;;11.03;;
15198;SDS011;7700;48.654;9.070;2024-03-02T04:21:34;13.03;;;11.10;;
15198;SDS011;7700;48.654;9.070;2024-03-02T04:23:59;13.70;;;11.60;;
15198;SDS011;7700;48.654;9.070;2024-03-02T04:26:25;13.33;;;11.00;;
15198;SDS011;7700;48.654;9.070;2024-03-02T04:28:54;12.20;;;10.27;;
15198;SDS011;7700;48.654;9.070;2024-03-02T04:31:19;12.17;;;10.27;;
15198;SDS011;7700;48.654;9.070;2024-03-02T04:33:46;12.50;;;10.67;;
15198;SDS011;7700;48.654;9.070;2024-03-02T04:36:11;17.20;;;11.40;;
15198;SDS011;7700;48.654;9.070;2024-03-02T04:38:37;13.70;;;10.90;;
15198;SDS011;7700;48.654;9.070;2024-03-02T04:41:06;11.57;;;10.20;;
15198;SDS011;7700;48.654;9.070;2024-03-02T04:43:32;13.43;;;10.03;;
15198;SDS011;7700;48.654;9.070;2024-03-02T04:45:58;10.20;;;9.10;;
15198;SDS011;7700;48.654;9.070;2024-03-02T04:48:25;10.83;;;9.73;;
15198;SDS011;7700;48.654;9.070;2024-03-02T04:50:50;13.73;;;8.97;;
15198;SDS011;7700;48.654;9.070;2024-03-02T04:53:16;11.53;;;9.83;;
15198;SDS011;7700;48.654;9.070;2024-03-02T04:55:41;10.53;;;8.87;;
15198;SDS011;7700;48.654;9.070;2024-03-02T04:58:07;9.70;;;8.70;;
15198;SDS011;7700;48.654;9.070;2024-03-02T05:00:33;9.47;;;8.50;;
15198;SDS011;7700;48.654;9.070;2024-03-02T05:02:59;9.17;;;8.27;;
15198;SDS011;7700;48.654;9.070;2024-03-02T05:05:24;10.13;;;9.13;;
15198;SDS011;7700;48.654;9.070;2024-03-02T05:07:50;10.47;;;9.37;;
15198;SDS011;7700;48.654;9.070;2024-03-02T05:10:16;11.00;;;9.87;;
15198;SDS011;7700;48.654;9.070;2024-03-02T05:12:41;14.17;;;9.27;;
15198;SDS011;7700;48.654;9.070;2024-03-02T05:15:07;9.80;;;8.80;;
15198;SDS011;7700;48.654;9.070;2024-03-02T05:17:35;9.70;;;8.70;;
15198;SDS011;7700;48.654;9.070;2024-03-02T05:20:00;9.73;;;8.73;;
15198;SDS011;7700;48.654;9.070;2024-03-02T05:22:26;9.70;;;8.70;;
15198;SDS011;7700;48.654;9.070;2024-03-02T05:24:52;9.43;;;8.43;;
15198;SDS011;7700;48.654;9.070;2024-03-02T05:27:18;10.40;;;8.73;;
15198;SDS011;7700;48.654;9.070;2024-03-02T05:29:43;9.73;;;8.70;;
15198;SDS011;7700;48.654;9.070;2024-03-02T05:32:09;9.90;;;9.00;;
15198;SDS011;7700;48.654;9.070;2024-03-02T05:34:34;12.03;;;8.87;;
15198;SDS011;7700;48.654;9.070;2024-03-02T05:37:00;10.33;;;9.33;;
15198;SDS011;7700;48.654;9.070;2024-03-02T05:39:26;13.23;;;11.93;;
15198;SDS011;7700;48.654;9.070;2024-03-02T05:41:52;13.20;;;11.43;;
15198;SDS011;7700;48.654;9.070;2024-03-02T05:44:17;12.67;;;11.47;;
15198;SDS011;7700;48.654;9.070;2024-03-02T05:46:44;13.47;;;11.97;;
15198;SDS011;7700;48.654;9.070;2024-03-02T05:49:10;13.07;;;11.77;;
15198;SDS011;7700;48.654;9.070;2024-03-02T05:51:35;11.50;;;10.33;;
15198;SDS011;7700;48.654;9.070;2024-03-02T05:54:01;12.33;;;10.33;;
15198;SDS011;7700;48.654;9.070;2024-03-02T05:56:27;14.57;;;13.17;;
15198;SDS011;7700;48.654;9.070;2024-03-02T05:58:52;12.80;;;11.07;;
15198;SDS011;7700;48.654;9.070;2024-03-02T06:01:32;15.30;;;12.83;;
15198;SDS011;7700;48.654;9.070;2024-03-02T06:03:58;13.53;;;12.13;;
15198;SDS011;7700;48.654;9.070;2024-03-02T06:06:24;14.20;;;12.30;;
15198;SDS011;7700;48.654;9.070;2024-03-02T06:08:49;12.40;;;11.10;;
15198;SDS011;7700;48.654;9.070;2024-03-02T06:11:15;13.50;;;10.87;;
15198;SDS011;7700;48.654;9.070;2024-03-02T06:13:41;13.33;;;10.97;;
15198;SDS011;7700;48.654;9.070;2024-03-02T06:16:06;14.50;;;12.37;;
15198;SDS011;7700;48.654;9.070;2024-03-02T06:18:33;14.87;;;12.37;;
15198;SDS011;7700;48.654;9.070;2024-03-02T06:20:59;12.40;;;11.07;;
15198;SDS011;7700;48.654;9.070;2024-03-02T06:23:26;12.73;;;11.43;;
15198;SDS011;7700;48.654;9.070;2024-03-02T06:25:51;13.27;;;11.80;;
15198;SDS011;7700;48.654;9.070;2024-03-02T06:28:17;13.33;;;11.00;;
15198;SDS011;7700;48.654;9.070;2024-03-02T06:30:43;13.70;;;12.20;;
15198;SDS011;7700;48.654;9.070;2024-03-02T06:33:09;15.00;;;12.10;;
15198;SDS011;7700;48.654;9.070;2024-03-02T06:35:34;14.40;;;11.63;;
15198;SDS011;7700;48.654;9.070;2024-03-02T06:38:00;15.33;;;12.33;;
15198;SDS011;7700;48.654;9.070;2024-03-02T06:40:26;14.73;;;11.60;;
15198;SDS011;7700;48.654;9.070;2024-03-02T06:42:52;12.33;;;10.97;;
15198;SDS011;7700;48.654;9.070;2024-03-02T06:45:17;15.07;;;11.00;;
15198;SDS011;7700;48.654;9.070;2024-03-02T06:47:43;14.30;;;10.73;;
15198;SDS011;7700;48.654;9.070;2024-03-02T06:50:09;12.30;;;10.77;;
15198;SDS011;7700;48.654;9.070;2024-03-02T06:52:35;13.17;;;11.37;;
15198;SDS011;7700;48.654;9.070;2024-03-02T06:55:01;13.17;;;11.57;;
15198;SDS011;7700;48.654;9.070;2024-03-02T06:57:27;13.90;;;12.40;;
15198;SDS011;7700;48.654;9.070;2024-03-02T06:59:52;14.27;;;12.43;;
15198;SDS011;7700;48.654;9.070;2024-03-02T07:02:22;17.47;;;12.27;;
15198;SDS011;7700;48.654;9.070;2024-03-02T07:04:48;13.73;;;11.10;;
15198;SDS011;7700;48.654;9.070;2024-03-02T07:07:13;10.27;;;8.90;;
15198;SDS011;7700;48.654;9.070;2024-03-02T07:09:39;12.40;;;10.43;;
15198;SDS011;7700;48.654;9.070;2024-03-02T07:12:05;12.90;;;11.13;;
15198;SDS011;7700;48.654;9.070;2024-03-02T07:14:30;13.77;;;12.27;;
15198;SDS011;7700;48.654;9.070;2024-03-02T07:17:15;13.67;;;11.33;;
15198;SDS011;7700;48.654;9.070;2024-03-02T07:19:40;11.20;;;10.03;;
15198;SDS011;7700;48.654;9.070;2024-03-02T07:22:06;9.13;;;8.23;;
15198;SDS011;7700;48.654;9.070;2024-03-02T07:24:38;10.10;;;9.10;;
15198;SDS011;7700;48.654;9.070;2024-03-02T07:27:08;11.37;;;10.27;;
15198;SDS011;7700;48.654;9.070;2024-03-02T07:29:37;12.40;;;11.20;;
15198;SDS011;7700;48.654;9.070;2024-03-02T07:32:03;14.00;;;12.60;;
15198;SDS011;7700;48.654;9.070;2024-03-02T07:34:29;14.10;;;11.67;;
15198;SDS011;7700;48.654;9.070;2024-03-02T07:36:55;12.37;;;11.17;;
15198;SDS011;7700;48.654;9.070;2024-03-02T07:39:20;13.00;;;11.33;;
15198;SDS011;7700;48.654;9.070;2024-03-02T07:41:46;11.53;;;10.20;;
15198;SDS011;7700;48.654;9.070;2024-03-02T07:44:12;11.60;;;10.40;;
15198;SDS011;7700;48.654;9.070;2024-03-02T07:46:41;11.83;;;10.37;;
15198;SDS011;7700;48.654;9.070;2024-03-02T07:49:08;11.50;;;10.30;;
15198;SDS011;7700;48.654;9.070;2024-03-02T07:51:34;10.77;;;9.77;;
15198;SDS011;7700;48.654;9.070;2024-03-02T07:53:59;12.17;;;10.00;;
15198;SDS011;7700;48.654;9.070;2024-03-02T07:56:25;10.57;;;9.47;;
15198;SDS011;7700;48.654;9.070;2024-03-02T07:58:50;11.13;;;10.03;;
15198;SDS011;7700;48.654;9.070;2024-03-02T08:01:16;12.07;;;9.77;;
15198;SDS011;7700;48.654;9.070;2024-03-02T08:03:42;10.03;;;9.03;;
15198;SDS011;7700;48.654;9.070;2024-03-02T08:06:12;9.43;;;8.53;;
15198;SDS011;7700;48.654;9.070;2024-03-02T08:08:39;10.10;;;9.10;;
15198;SDS011;7700;48.654;9.070;2024-03-02T08:11:05;11.13;;;9.73;;
15198;SDS011;7700;48.654;9.070;2024-03-02T08:13:31;10.40;;;9.40;;
15198;SDS011;7700;48.654;9.070;2024-03-02T08:15:57;10.87;;;9.77;;
15198;SDS011;7700;48.654;9.070;2024-03-02T08:18:23;10.20;;;9.20;;
15198;SDS011;7700;48.654;9.070;2024-03-02T08:20:49;9.77;;;8.40;;
15198;SDS011;7700;48.654;9.070;2024-03-02T08:23:14;7.97;;;7.17;;
15198;SDS011;7700;48.654;9.070;2024-03-02T08:25:40;7.00;;;6.30;;
15198;SDS011;7700;48.654;9.070;2024-03-02T08:28:05;7.87;;;7.17;;
15198;SDS011;7700;48.654;9.070;2024-03-02T08:30:31;7.57;;;6.87;;
15198;SDS011;7700;48.654;9.070;2024-03-02T08:32:56;6.63;;;6.03;;
15198;SDS011;7700;48.654;9.070;2024-03-02T08:35:22;7.73;;;6.57;;
15198;SDS011;7700;48.654;9.070;2024-03-02T08:37:48;6.32;;;5.75;;
15198;SDS011;7700;48.654;9.070;2024-03-02T08:40:14;7.53;;;6.85;;
15198;SDS011;7700;48.654;9.070;2024-03-02T08:42:39;7.97;;;7.20;;
15198;SDS011;7700;48.654;9.070;2024-03-02T08:45:06;8.38;;;7.57;;
15198;SDS011;7700;48.654;9.070;2024-03-02T08:47:32;7.60;;;6.90;;
15198;SDS011;7700;48.654;9.070;2024-03-02T08:49:58;6.93;;;6.28;;
15198;SDS011;7700;48.654;9.070;2024-03-02T08:52:24;6.15;;;5.55;;
15198;SDS011;7700;48.654;9.070;2024-03-02T08:54:49;5.85;;;5.35;;
15198;SDS011;7700;48.654;9.070;2024-03-02T08:57:15;5.88;;;5.32;;
15198;SDS011;7700;48.654;9.070;2024-03-02T08:59:40;6.07;;;5.47;;
15198;SDS011;7700;48.654;9.070;2024-03-02T09:02:06;5.70;;;5.20;;
15198;SDS011;7700;48.654;9.070;2024-03-02T09:04:31;5.90;;;5.35;;
15198;SDS011;7700;48.654;9.070;2024-03-02T09:06:57;5.68;;;5.18;;
15198;SDS011;7700;48.654;9.070;2024-03-02T09:09:23;5.30;;;4.80;;
15198;SDS011;7700;48.654;9.070;2024-03-02T09:11:48;5.38;;;4.97;;
15198;SDS011;7700;48.654;9.070;2024-03-02T09:14:14;5.88;;;5.38;;
15198;SDS011;7700;48.654;9.070;2024-03-02T09:16:40;5.38;;;4.97;;
15198;SDS011;7700;48.654;9.070;2024-03-02T09:19:06;4.97;;;4.57;;
15198;SDS011;7700;48.654;9.070;2024-03-02T09:21:32;4.45;;;4.13;;
15198;SDS011;7700;48.654;9.070;2024-03-02T09:23:57;4.68;;;4.28;;
15198;SDS011;7700;48.654;9.070;2024-03-02T09:26:23;4.20;;;3.47;;
15198;SDS011;7700;48.654;9.070;2024-03-02T09:28:50;4.07;;;3.78;;
15198;SDS011;7700;48.654;9.070;2024-03-02T09:31:15;5.47;;;3.90;;
15198;SDS011;7700;48.654;9.070;2024-03-02T09:33:41;3.28;;;3.08;;
15198;SDS011;7700;48.654;9.070;2024-03-02T09:36:16;3.58;;;3.28;;
15198;SDS011;7700;48.654;9.070;2024-03-02T09:38:43;3.75;;;3.45;;
15198;SDS011;7700;48.654;9.070;2024-03-02T09:41:09;3.08;;;2.88;;
15198;SDS011;7700;48.654;9.070;2024-03-02T09:43:35;3.35;;;3.05;;
15198;SDS011;7700;48.654;9.070;2024-03-02T09:46:00;3.45;;;3.15;;
15198;SDS011;7700;48.654;9.070;2024-03-02T09:48:26;3.10;;;2.88;;
15198;SDS011;7700;48.654;9.070;2024-03-02T09:50:52;2.70;;;2.50;;
15198;SDS011;7700;48.654;9.070;2024-03-02T09:53:17;3.60;;;3.30;;
15198;SDS011;7700;48.654;9.070;2024-03-02T09:55:46;3.28;;;3.00;;
15198;SDS011;7700;48.654;9.070;2024-03-02T09:58:12;3.53;;;2.83;;
15198;SDS011;7700;48.654;9.070;2024-03-02T10:03:31;3.47;;;2.92;;
15198;SDS011;7700;48.654;9.070;2024-03-02T10:08:43;3.60;;;2.67;;
15198;SDS011;7700;48.654;9.070;2024-03-02T10:11:09;2.58;;;2.28;;
15198;SDS011;7700;48.654;9.070;2024-03-02T10:13:35;2.28;;;2.10;;
15198;SDS011;7700;48.654;9.070;2024-03-02T10:16:10;3.45;;;2.13;;
15198;SDS011;7700;48.654;9.070;2024-03-02T10:18:37;1.85;;;1.75;;
15198;SDS011;7700;48.654;9.070;2024-03-02T10:21:12;1.98;;;1.73;;
15198;SDS011;7700;48.654;9.070;2024-03-02T10:23:39;1.58;;;1.48;;
15198;SDS011;7700;48.654;9.070;2024-03-02T10:26:11;1.70;;;1.60;;
15198;SDS011;7700;48.654;9.070;2024-03-02T10:28:48;1.65;;;1.55;;
15198;SDS011;7700;48.654;9.070;2024-03-02T10:31:13;1.80;;;1.50;;
15198;SDS011;7700;48.654;9.070;2024-03-02T10:33:39;1.25;;;1.15;;
15198;SDS011;7700;48.654;9.070;2024-03-02T10:36:05;1.20;;;1.10;;
15198;SDS011;7700;48.654;9.070;2024-03-02T10:38:31;1.30;;;1.20;;
15198;SDS011;7700;48.654;9.070;2024-03-02T10:40:57;1.52;;;0.90;;
15198;SDS011;7700;48.654;9.070;2024-03-02T10:43:24;0.90;;;0.90;;
15198;SDS011;7700;48.654;9.070;2024-03-02T10:45:51;1.15;;;1.05;;
15198;SDS011;7700;48.654;9.070;2024-03-02T10:48:19;0.88;;;0.70;;
15198;SDS011;7700;48.654;9.070;2024-03-02T10:50:46;0.77;;;0.77;;
15198;SDS011;7700;48.654;9.070;2024-03-02T10:53:12;0.77;;;0.73;;
15198;SDS011;7700;48.654;9.070;2024-03-02T10:55:37;1.00;;;0.80;;
15198;SDS011;7700;48.654;9.070;2024-03-02T10:58:04;0.63;;;0.55;;
15198;SDS011;7700;48.654;9.070;2024-03-02T11:00:33;0.50;;;0.50;;
15198;SDS011;7700;48.654;9.070;2024-03-02T11:03:06;0.60;;;0.50;;
15198;SDS011;7700;48.654;9.070;2024-03-02T11:05:38;0.40;;;0.40;;
15198;SDS011;7700;48.654;9.070;2024-03-02T11:08:08;0.60;;;0.60;;
15198;SDS011;7700;48.654;9.070;2024-03-02T11:10:49;0.68;;;0.68;;
15198;SDS011;7700;48.654;9.070;2024-03-02T11:13:17;0.50;;;0.50;;
15198;SDS011;7700;48.654;9.070;2024-03-02T11:15:49;0.98;;;0.50;;
15198;SDS011;7700;48.654;9.070;2024-03-02T11:18:19;0.73;;;0.57;;
15198;SDS011;7700;48.654;9.070;2024-03-02T11:20:45;0.60;;;0.57;;
15198;SDS011;7700;48.654;9.070;2024-03-02T11:23:11;0.70;;;0.70;;
15198;SDS011;7700;48.654;9.070;2024-03-02T11:25:37;0.82;;;0.77;;
15198;SDS011;7700;48.654;9.070;2024-03-02T11:28:05;0.63;;;0.60;;
15198;SDS011;7700;48.654;9.070;2024-03-02T11:32:57;1.52;;;0.90;;
15198;SDS011;7700;48.654;9.070;2024-03-02T11:35:26;1.20;;;0.88;;
15198;SDS011;7700;48.654;9.070;2024-03-02T11:37:55;0.95;;;0.60;;
15198;SDS011;7700;48.654;9.070;2024-03-02T11:40:26;0.90;;;0.73;;
15198;SDS011;7700;48.654;9.070;2024-03-02T11:42:53;1.38;;;0.50;;
15198;SDS011;7700;48.654;9.070;2024-03-02T11:45:28;0.80;;;0.80;;
15198;SDS011;7700;48.654;9.070;2024-03-02T11:47:56;0.73;;;0.70;;
15198;SDS011;7700;48.654;9.070;2024-03-02T11:50:29;0.75;;;0.75;;
15198;SDS011;7700;48.654;9.070;2024-03-02T11:52:55;0.82;;;0.82;;
15198;SDS011;7700;48.654;9.070;2024-03-02T11:55:22;0.70;;;0.70;;
15198;SDS011;7700;48.654;9.070;2024-03-02T11:57:50;0.70;;;0.70;;
15198;SDS011;7700;48.654;9.070;2024-03-02T12:00:18;0.50;;;0.50;;
15198;SDS011;7700;48.654;9.070;2024-03-02T12:02:45;0.52;;;0.52;;
15198;SDS011;7700;48.654;9.070;2024-03-02T12:05:14;1.30;;;1.20;;
15198;SDS011;7700;48.654;9.070;2024-03-02T12:07:41;0.80;;;0.80;;
15198;SDS011;7700;48.654;9.070;2024-03-02T12:10:08;2.03;;;0.82;;
15198;SDS011;7700;48.654;9.070;2024-03-02T12:12:33;1.35;;;1.30;;
15198;SDS011;7700;48.654;9.070;2024-03-02T12:14:59;1.52;;;1.25;;
15198;SDS011;7700;48.654;9.070;2024-03-02T12:17:25;1.48;;;1.38;;
15198;SDS011;7700;48.654;9.070;2024-03-02T12:19:51;1.38;;;1.27;;
15198;SDS011;7700;48.654;9.070;2024-03-02T12:22:17;0.70;;;0.70;;
15198;SDS011;7700;48.654;9.070;2024-03-02T12:24:44;0.90;;;0.90;;
15198;SDS011;7700;48.654;9.070;2024-03-02T12:27:15;1.02;;;0.93;;
15198;SDS011;7700;48.654;9.070;2024-03-02T12:29:41;1.13;;;0.73;;
15198;SDS011;7700;48.654;9.070;2024-03-02T12:32:08;1.38;;;1.10;;
15198;SDS011;7700;48.654;9.070;2024-03-02T12:34:33;1.30;;;1.20;;
15198;SDS011;7700;48.654;9.070;2024-03-02T12:36:59;1.60;;;1.50;;
15198;SDS011;7700;48.654;9.070;2024-03-02T12:39:24;1.90;;;1.27;;
15198;SDS011;7700;48.654;9.070;2024-03-02T12:41:51;1.48;;;1.23;;
15198;SDS011;7700;48.654;9.070;2024-03-02T12:44:18;1.48;;;1.35;;
15198;SDS011;7700;48.654;9.070;2024-03-02T12:46:44;1.40;;;1.30;;
15198;SDS011;7700;48.654;9.070;2024-03-02T12:49:12;1.10;;;1.02;;
15198;SDS011;7700;48.654;9.070;2024-03-02T12:51:39;1.50;;;1.40;;
15198;SDS011;7700;48.654;9.070;2024-03-02T12:54:08;2.03;;;0.90;;
15198;SDS011;7700;48.654;9.070;2024-03-02T12:56:36;0.80;;;0.80;;
15198;SDS011;7700;48.654;9.070;2024-03-02T12:59:10;0.93;;;0.60;;
15198;SDS011;7700;48.654;9.070;2024-03-02T13:01:55;0.50;;;0.50;;
15198;SDS011;7700;48.654;9.070;2024-03-02T13:04:28;0.60;;;0.60;;
15198;SDS011;7700;48.654;9.070;2024-03-02T13:06:55;0.65;;;0.45;;
15198;SDS011;7700;48.654;9.070;2024-03-02T13:09:24;0.50;;;0.50;;
15198;SDS011;7700;48.654;9.070;2024-03-02T13:11:49;0.55;;;0.50;;
15198;SDS011;7700;48.654;9.070;2024-03-02T13:14:15;0.40;;;0.40;;
15198;SDS011;7700;48.654;9.070;2024-03-02T13:16:41;0.60;;;0.60;;
15198;SDS011;7700;48.654;9.070;2024-03-02T13:19:13;0.82;;;0.80;;
15198;SDS011;7700;48.654;9.070;2024-03-02T13:21:38;0.75;;;0.73;;
15198;SDS011;7700;48.654;9.070;2024-03-02T13:24:04;1.00;;;0.77;;
15198;SDS011;7700;48.654;9.070;2024-03-02T13:26:30;1.50;;;0.80;;
15198;SDS011;7700;48.654;9.070;2024-03-02T13:28:56;0.85;;;0.68;;
15198;SDS011;7700;48.654;9.070;2024-03-02T13:31:22;0.60;;;0.60;;
15198;SDS011;7700;48.654;9.070;2024-03-02T13:33:47;1.33;;;0.50;;
15198;SDS011;7700;48.654;9.070;2024-03-02T13:36:13;0.63;;;0.63;;
15198;SDS011;7700;48.654;9.070;2024-03-02T13:38:39;0.95;;;0.70;;
15198;SDS011;7700;48.654;9.070;2024-03-02T13:41:04;1.88;;;0.70;;
15198;SDS011;7700;48.654;9.070;2024-03-02T13:43:30;0.80;;;0.70;;
15198;SDS011;7700;48.654;9.070;2024-03-02T13:46:00;0.77;;;0.73;;
15198;SDS011;7700;48.654;9.070;2024-03-02T13:48:27;0.43;;;0.43;;
15198;SDS011;7700;48.654;9.070;2024-03-02T13:50:53;1.00;;;1.00;;
15198;SDS011;7700;48.654;9.070;2024-03-02T13:53:19;1.02;;;0.70;;
15198;SDS011;7700;48.654;9.070;2024-03-02T13:55:45;0.70;;;0.70;;
15198;SDS011;7700;48.654;9.070;2024-03-02T13:58:10;0.90;;;0.90;;
15198;SDS011;7700;48.654;9.070;2024-03-02T14:00:36;1.60;;;0.80;;
15198;SDS011;7700;48.654;9.070;2024-03-02T14:03:05;1.63;;;0.93;;
15198;SDS011;7700;48.654;9.070;2024-03-02T14:05:32;1.25;;;1.15;;
15198;SDS011;7700;48.654;9.070;2024-03-02T14:07:57;1.55;;;1.13;;
15198;SDS011;7700;48.654;9.070;2024-03-02T14:10:25;2.05;;;1.10;;
15198;SDS011;7700;48.654;9.070;2024-03-02T14:12:50;1.30;;;1.20;;
15198;SDS011;7700;48.654;9.070;2024-03-02T14:15:16;1.30;;;1.20;;
15198;SDS011;7700;48.654;9.070;2024-03-02T14:17:41;2.83;;;1.58;;
15198;SDS011;7700;48.654;9.070;2024-03-02T14:20:07;1.10;;;1.05;;
15198;SDS011;7700;48.654;9.070;2024-03-02T14:22:35;1.48;;;1.23;;
15198;SDS011;7700;48.654;9.070;2024-03-02T14:25:02;1.23;;;1.13;;
15198;SDS011;7700;48.654;9.070;2024-03-02T14:27:28;1.05;;;1.00;;
15198;SDS011;7700;48.654;9.070;2024-03-02T14:29:53;0.95;;;0.82;;
15198;SDS011;7700;48.654;9.070;2024-03-02T14:32:19;1.10;;;1.02;;
15198;SDS011;7700;48.654;9.070;2024-03-02T14:34:45;2.00;;;1.23;;
15198;SDS011;7700;48.654;9.070;2024-03-02T14:37:11;0.88;;;0.88;;
15198;SDS011;7700;48.654;9.070;2024-03-02T14:39:38;1.40;;;0.90;;
15198;SDS011;7700;48.654;9.070;2024-03-02T14:42:04;0.88;;;0.88;;
15198;SDS011;7700;48.654;9.070;2024-03-02T14:44:30;1.10;;;1.00;;
15198;SDS011;7700;48.654;9.070;2024-03-02T14:46:55;1.10;;;1.00;;
15198;SDS011;7700;48.654;9.070;2024-03-02T14:49:23;0.93;;;0.93;;
15198;SDS011;7700;48.654;9.070;2024-03-02T14:51:49;1.23;;;1.15;;
15198;SDS011;7700;48.654;9.070;2024-03-02T14:54:15;2.15;;;1.00;;
15198;SDS011;7700;48.654;9.070;2024-03-02T14:56:40;0.80;;;0.80;;
15198;SDS011;7700;48.654;9.070;2024-03-02T14:59:06;1.30;;;1.20;;
15198;SDS011;7700;48.654;9.070;2024-03-02T15:01:31;1.20;;;1.00;;
15198;SDS011;7700;48.654;9.070;2024-03-02T15:03:57;2.28;;;1.77;;